createdAt,value
2022-09-12T00:00:50.370Z,101451.31
2022-09-12T00:03:16.862Z,101439.03
2022-09-12T00:05:44.854Z,101443.34
2022-09-12T00:08:11.852Z,101439.31
2022-09-12T00:10:40.817Z,101439.19
2022-09-12T00:13:08.342Z,101428.41
2022-09-12T00:15:39.264Z,101434.75
2022-09-12T00:18:06.374Z,101435.59
2022-09-12T00:20:32.723Z,101433.53
2022-09-12T00:22:59.100Z,101430.84
2022-09-12T00:25:25.452Z,101427.06
2022-09-12T00:27:51.842Z,101429.78
2022-09-12T00:30:18.213Z,101423.75
2022-09-12T00:32:45.020Z,101418.69
2022-09-12T00:35:11.502Z,101412.56
2022-09-12T00:37:38.026Z,101408.28
2022-09-12T00:40:04.798Z,101401.91
2022-09-12T00:42:31.207Z,101409.22
2022-09-12T00:44:57.581Z,101404.91
2022-09-12T00:47:27.651Z,101403.34
2022-09-12T00:50:13.582Z,101406.06
2022-09-12T00:52:54.283Z,101403.53
2022-09-12T00:55:29.954Z,101399.09
2022-09-12T00:58:14.365Z,101402.19
2022-09-12T01:00:41.140Z,101403.31
2022-09-12T01:03:11.127Z,101396.44
2022-09-12T01:05:44.222Z,101388.56
2022-09-12T01:08:11.278Z,101390.84
2022-09-12T01:10:39.890Z,101386.03
2022-09-12T01:13:11.036Z,101392.81
2022-09-12T01:15:38.950Z,101381.16
2022-09-12T01:18:17.243Z,101385.25
2022-09-12T01:20:46.403Z,101374.50
2022-09-12T01:24:01.706Z,101377.75
2022-09-12T01:26:27.980Z,101382.16
2022-09-12T01:29:31.647Z,101385.84
2022-09-12T01:32:16.888Z,101375.22
2022-09-12T01:35:04.498Z,101370.34
2022-09-12T01:38:03.480Z,101366.09
2022-09-12T01:40:49.085Z,101369.63
2022-09-12T01:43:26.724Z,101365.19
2022-09-12T01:46:03.149Z,101368.91
2022-09-12T01:48:37.219Z,101368.34
2022-09-12T01:51:10.403Z,101368.13
2022-09-12T01:53:42.375Z,101361.66
2022-09-12T01:56:14.511Z,101365.16
2022-09-12T01:58:47.482Z,101358.72
2022-09-12T02:01:23.031Z,101358.06
2022-09-12T02:03:56.861Z,101348.47
2022-09-12T02:06:31.911Z,101352.22
2022-09-12T02:09:06.439Z,101341.38
2022-09-12T02:11:35.503Z,101348.84
2022-09-12T02:14:09.715Z,101345.03
2022-09-12T02:16:39.574Z,101336.22
2022-09-12T02:19:12.662Z,101336.63
2022-09-12T02:21:42.174Z,101335.94
2022-09-12T02:24:13.317Z,101331.47
2022-09-12T02:26:47.273Z,101335.22
2022-09-12T02:29:13.708Z,101328.91
2022-09-12T02:31:47.340Z,101326.47
2022-09-12T02:34:35.325Z,101328.97
2022-09-12T02:37:18.609Z,101326.50
2022-09-12T02:39:45.607Z,101324.94
2022-09-12T02:42:13.296Z,101326.69
2022-09-12T02:44:40.159Z,101322.22
2022-09-12T02:47:36.596Z,101320.03
2022-09-12T02:50:05.425Z,101316.47
2022-09-12T02:52:32.188Z,101318.41
2022-09-12T02:54:59.454Z,101310.22
2022-09-12T02:57:25.923Z,101313.22
2022-09-12T02:59:57.187Z,101306.28
2022-09-12T03:02:45.542Z,101305.44
2022-09-12T03:05:20.689Z,101298.78
2022-09-12T03:08:05.727Z,101300.06
2022-09-12T03:10:42.554Z,101307.34
2022-09-12T03:13:22.796Z,101300.56
2022-09-12T03:15:52.153Z,101297.84
2022-09-12T03:18:40.490Z,101294.31
2022-09-12T03:21:09.881Z,101294.25
2022-09-12T03:23:50.580Z,101299.59
2022-09-12T03:26:28.731Z,101298.25
2022-09-12T03:28:56.741Z,101298.19
2022-09-12T03:31:23.148Z,101293.16
2022-09-12T03:33:49.518Z,101293.16
2022-09-12T03:36:20.493Z,101295.16
2022-09-12T03:38:46.978Z,101284.03
2022-09-12T03:41:13.486Z,101284.94
2022-09-12T03:43:40.353Z,101282.72
2022-09-12T03:46:06.805Z,101284.41
2022-09-12T03:48:33.216Z,101281.50
2022-09-12T03:51:04.206Z,101279.69
2022-09-12T03:53:30.749Z,101283.94
2022-09-12T03:55:58.213Z,101285.84
2022-09-12T03:58:29.217Z,101283.94
2022-09-12T04:00:55.643Z,101283.13
2022-09-12T04:03:22.021Z,101278.19
2022-09-12T04:05:48.523Z,101285.94
2022-09-12T04:08:15.020Z,101280.28
2022-09-12T04:10:41.503Z,101278.84
2022-09-12T04:13:08.115Z,101277.22
2022-09-12T04:15:34.536Z,101272.81
2022-09-12T04:18:05.545Z,101273.72
2022-09-12T04:20:32.435Z,101267.97
2022-09-12T04:22:58.776Z,101269.53
2022-09-12T04:25:25.249Z,101261.88
2022-09-12T04:27:51.632Z,101264.53
2022-09-12T04:30:18.159Z,101264.53
2022-09-12T04:32:44.609Z,101263.63
2022-09-12T04:35:12.266Z,101262.66
2022-09-12T04:37:41.390Z,101267.16
2022-09-12T04:40:08.421Z,101265.19
2022-09-12T04:42:34.866Z,101265.50
2022-09-12T04:45:01.265Z,101267.47
2022-09-12T04:47:28.320Z,101267.03
2022-09-12T04:49:55.441Z,101258.78
2022-09-12T04:52:21.845Z,101267.72
2022-09-12T04:54:48.320Z,101272.16
2022-09-12T04:57:14.714Z,101266.56
2022-09-12T04:59:41.225Z,101265.13
2022-09-12T05:02:07.652Z,101259.75
2022-09-12T05:04:34.874Z,101260.66
2022-09-12T05:07:01.478Z,101256.53
2022-09-12T05:09:27.798Z,101264.97
2022-09-12T05:12:09.455Z,101259.88
2022-09-12T05:14:35.846Z,101262.69
2022-09-12T05:17:03.766Z,101261.50
2022-09-12T05:19:30.933Z,101260.84
2022-09-12T05:21:58.116Z,101264.53
2022-09-12T05:24:24.737Z,101265.00
2022-09-12T05:26:51.443Z,101267.03
2022-09-12T05:29:17.904Z,101269.50
2022-09-12T05:31:44.401Z,101265.63
2022-09-12T05:34:11.162Z,101269.56
2022-09-12T05:36:38.389Z,101267.47
2022-09-12T05:39:04.898Z,101265.91
2022-09-12T05:41:33.451Z,101267.78
2022-09-12T05:44:01.780Z,101266.34
2022-09-12T05:46:30.238Z,101269.78
2022-09-12T05:48:58.257Z,101264.00
2022-09-12T05:51:28.045Z,101263.44
2022-09-12T05:53:59.911Z,101258.06
2022-09-12T05:56:28.843Z,101272.25
2022-09-12T05:59:02.587Z,101264.44
2022-09-12T06:01:30.377Z,101269.34
2022-09-12T06:04:00.734Z,101270.81
2022-09-12T06:06:29.021Z,101271.72
2022-09-12T06:09:01.100Z,101263.84
2022-09-12T06:11:30.275Z,101259.25
2022-09-12T06:13:58.235Z,101256.59
2022-09-12T06:16:27.839Z,101258.97
2022-09-12T06:18:56.125Z,101252.00
2022-09-12T06:21:23.894Z,101256.38
2022-09-12T06:23:50.615Z,101264.41
2022-09-12T06:26:21.414Z,101265.63
2022-09-12T06:28:47.895Z,101274.75
2022-09-12T06:31:20.516Z,101271.41
2022-09-12T06:33:50.087Z,101269.34
2022-09-12T06:36:17.852Z,101259.81
2022-09-12T06:38:46.310Z,101257.56
2022-09-12T06:41:13.242Z,101265.19
2022-09-12T06:43:41.041Z,101267.44
2022-09-12T06:46:08.179Z,101270.47
2022-09-12T06:48:37.386Z,101260.91
2022-09-12T06:51:11.419Z,101273.66
2022-09-12T06:53:38.127Z,101269.81
2022-09-12T06:56:14.584Z,101269.97
2022-09-12T06:58:42.624Z,101260.78
2022-09-12T07:01:13.212Z,101274.50
2022-09-12T07:03:40.510Z,101269.66
2022-09-12T07:06:09.753Z,101258.59
2022-09-12T07:08:37.551Z,101260.50
2022-09-12T07:11:16.196Z,101249.31
2022-09-12T07:13:44.744Z,101245.47
2022-09-12T07:16:17.318Z,101244.81
2022-09-12T07:18:51.108Z,101253.50
2022-09-12T07:21:17.461Z,101246.38
2022-09-12T07:23:44.844Z,101252.97
2022-09-12T07:26:12.621Z,101260.41
2022-09-12T07:28:40.044Z,101261.13
2022-09-12T07:31:11.847Z,101263.19
2022-09-12T07:33:38.659Z,101246.69
2022-09-12T07:36:13.790Z,101257.59
2022-09-12T07:38:41.074Z,101249.78
2022-09-12T07:41:17.489Z,101249.31
2022-09-12T07:43:44.085Z,101247.22
2022-09-12T07:46:11.431Z,101251.69
2022-09-12T07:48:38.961Z,101254.91
2022-09-12T07:51:08.240Z,101250.72
2022-09-12T07:53:37.950Z,101261.25
2022-09-12T07:56:05.853Z,101259.13
2022-09-12T07:58:34.786Z,101254.25
2022-09-12T08:01:09.368Z,101258.13
2022-09-12T08:03:36.731Z,101249.28
2022-09-12T08:06:08.455Z,101249.28
2022-09-12T08:08:35.465Z,101250.75
2022-09-12T08:11:05.940Z,101252.38
2022-09-12T08:13:33.753Z,101257.44
2022-09-12T08:16:02.695Z,101255.53
2022-09-12T08:18:30.372Z,101259.28
2022-09-12T08:21:01.528Z,101267.16
2022-09-12T08:23:29.239Z,101256.97
2022-09-12T08:25:57.160Z,101248.94
2022-09-12T08:28:25.267Z,101249.38
2022-09-12T08:30:53.046Z,101251.78
2022-09-12T08:33:19.827Z,101252.69
2022-09-12T08:35:47.213Z,101246.84
2022-09-12T08:38:13.631Z,101256.72
2022-09-12T08:40:53.196Z,101259.03
2022-09-12T08:43:43.749Z,101263.38
2022-09-12T08:46:21.631Z,101249.47
2022-09-12T08:48:48.577Z,101257.00
2022-09-12T08:51:19.415Z,101255.88
2022-09-12T08:53:49.381Z,101257.91
2022-09-12T08:56:16.745Z,101259.66
2022-09-12T08:58:44.971Z,101254.59
2022-09-12T09:01:30.659Z,101249.53
2022-09-12T09:04:18.613Z,101253.31
2022-09-12T09:07:17.539Z,101253.50
2022-09-12T09:09:51.958Z,101249.50
2022-09-12T09:12:36.342Z,101249.28
2022-09-12T09:15:23.688Z,101236.31
2022-09-12T09:17:54.991Z,101241.41
2022-09-12T09:20:41.151Z,101238.34
2022-09-12T09:23:15.295Z,101233.47
2022-09-12T09:25:56.527Z,101234.66
2022-09-12T09:28:35.159Z,101226.25
2022-09-12T09:31:02.035Z,101229.22
2022-09-12T09:33:34.742Z,101220.94
2022-09-12T09:36:22.437Z,101223.28
2022-09-12T09:38:55.356Z,101219.22
2022-09-12T09:41:56.637Z,101216.69
2022-09-12T09:44:23.501Z,101218.09
2022-09-12T09:46:55.512Z,101214.66
2022-09-12T09:49:22.503Z,101207.75
2022-09-12T09:51:49.078Z,101215.41
2022-09-12T09:54:27.932Z,101217.97
2022-09-12T09:56:54.535Z,101210.69
2022-09-12T09:59:32.183Z,101206.38
2022-09-12T10:02:18.554Z,101205.72
2022-09-12T10:04:57.536Z,101203.28
2022-09-12T10:07:25.969Z,101194.34
2022-09-12T10:10:07.506Z,101188.50
2022-09-12T10:12:33.914Z,101187.50
2022-09-12T10:15:04.432Z,101188.44
2022-09-12T10:17:43.943Z,101177.41
2022-09-12T10:20:30.416Z,101176.25
2022-09-12T10:22:59.895Z,101168.75
2022-09-12T10:25:27.652Z,101170.38
2022-09-12T10:27:57.646Z,101169.47
2022-09-12T10:30:25.848Z,101171.19
2022-09-12T10:32:54.130Z,101165.09
2022-09-12T10:35:24.740Z,101165.03
2022-09-12T10:38:00.655Z,101158.31
2022-09-12T10:40:31.650Z,101156.09
2022-09-12T10:43:05.388Z,101155.38
2022-09-12T10:45:33.251Z,101148.28
2022-09-12T10:48:06.794Z,101145.44
2022-09-12T10:50:42.293Z,101138.69
2022-09-12T10:53:22.281Z,101150.53
2022-09-12T10:56:12.280Z,101136.41
2022-09-12T10:59:20.528Z,101128.22
2022-09-12T11:01:50.658Z,101130.72
2022-09-12T11:04:33.790Z,101127.13
2022-09-12T11:07:18.508Z,101116.25
2022-09-12T11:10:00.516Z,101115.22
2022-09-12T11:12:33.859Z,101118.09
2022-09-12T11:15:17.061Z,101115.53
2022-09-12T11:18:25.034Z,101116.56
2022-09-12T11:21:11.489Z,101120.22
2022-09-12T11:24:15.373Z,101107.78
2022-09-12T11:27:00.849Z,101118.25
2022-09-12T11:29:35.935Z,101121.47
2022-09-12T11:32:27.096Z,101107.84
2022-09-12T11:35:27.573Z,101122.47
2022-09-12T11:38:07.272Z,101115.75
2022-09-12T11:40:44.610Z,101124.38
2022-09-12T11:43:39.740Z,101111.69
2022-09-12T11:46:15.265Z,101100.09
2022-09-12T11:48:55.060Z,101123.34
2022-09-12T11:51:27.804Z,101116.63
2022-09-12T11:54:02.664Z,101122.34
2022-09-12T11:56:29.064Z,101130.69
2022-09-12T11:59:04.539Z,101120.34
2022-09-12T12:01:43.948Z,101106.88
2022-09-12T12:04:18.760Z,101108.63
2022-09-12T12:07:15.328Z,101102.59
2022-09-12T12:09:52.670Z,101105.41
2022-09-12T12:12:24.781Z,101103.13
2022-09-12T12:14:54.772Z,101095.41
2022-09-12T12:17:24.049Z,101090.34
2022-09-12T12:20:07.499Z,101083.72
2022-09-12T12:22:34.837Z,101078.03
2022-09-12T12:25:07.439Z,101085.47
2022-09-12T12:27:54.157Z,101085.94
2022-09-12T12:30:29.531Z,101086.66
2022-09-12T12:33:12.974Z,101090.06
2022-09-12T12:35:46.721Z,101081.66
2022-09-12T12:38:34.125Z,101076.47
2022-09-12T12:41:18.489Z,101074.38
2022-09-12T12:43:46.424Z,101066.69
2022-09-12T12:46:17.511Z,101068.97
2022-09-12T12:49:09.646Z,101066.50
2022-09-12T12:51:38.847Z,101058.38
2022-09-12T12:54:31.043Z,101054.94
2022-09-12T12:57:08.524Z,101051.69
2022-09-12T12:59:34.932Z,101049.63
2022-09-12T13:02:01.764Z,101048.78
2022-09-12T13:04:32.353Z,101047.53
2022-09-12T13:07:08.712Z,101046.78
2022-09-12T13:09:45.961Z,101048.25
2022-09-12T13:12:23.646Z,101040.41
2022-09-12T13:14:54.394Z,101034.63
2022-09-12T13:17:25.185Z,101034.25
2022-09-12T13:20:16.910Z,101036.69
2022-09-12T13:22:45.058Z,101022.59
2022-09-12T13:25:31.711Z,101010.09
2022-09-12T13:28:23.045Z,101015.84
2022-09-12T13:31:03.371Z,101018.50
2022-09-12T13:33:37.282Z,101008.44
2022-09-12T13:36:12.835Z,100997.19
2022-09-12T13:38:51.457Z,101000.31
2022-09-12T13:41:51.097Z,100989.59
2022-09-12T13:44:20.558Z,100998.97
2022-09-12T13:46:47.610Z,100986.94
2022-09-12T13:49:26.372Z,100982.91
2022-09-12T13:52:03.819Z,100987.03
2022-09-12T13:54:31.882Z,100981.38
2022-09-12T13:56:59.682Z,100979.53
2022-09-12T13:59:26.253Z,100982.16
2022-09-12T14:01:52.630Z,100981.06
2022-09-12T14:04:43.570Z,100974.03
2022-09-12T14:07:22.150Z,100973.78
2022-09-12T14:09:57.737Z,100978.22
2022-09-12T14:12:43.794Z,100973.50
2022-09-12T14:15:24.013Z,100973.72
2022-09-12T14:17:52.802Z,100972.97
2022-09-12T14:20:22.337Z,100972.50
2022-09-12T14:22:51.305Z,100964.50
2022-09-12T14:25:20.500Z,100965.63
2022-09-12T14:27:55.527Z,100970.28
2022-09-12T14:30:26.027Z,100959.97
2022-09-12T14:33:10.743Z,100954.50
2022-09-12T14:35:50.870Z,100939.31
2022-09-12T14:38:17.205Z,100941.47
2022-09-12T14:40:46.297Z,100938.03
2022-09-12T14:43:34.017Z,100948.56
2022-09-12T14:46:03.744Z,100952.25
2022-09-12T14:48:37.559Z,100940.97
2022-09-12T14:51:05.294Z,100933.69
2022-09-12T14:53:36.589Z,100932.03
2022-09-12T14:56:08.049Z,100924.28
2022-09-12T14:58:35.323Z,100926.97
2022-09-12T15:01:22.492Z,100924.97
2022-09-12T15:03:53.206Z,100913.38
2022-09-12T15:06:31.299Z,100924.56
2022-09-12T15:09:00.784Z,100925.06
2022-09-12T15:11:27.486Z,100922.66
2022-09-12T15:13:54.019Z,100917.47
2022-09-12T15:16:20.639Z,100922.22
2022-09-12T15:18:46.987Z,100918.72
2022-09-12T15:21:18.580Z,100920.81
2022-09-12T15:23:49.439Z,100915.47
2022-09-12T15:26:21.966Z,100907.53
2022-09-12T15:28:48.705Z,100916.06
2022-09-12T15:31:30.276Z,100915.56
2022-09-12T15:33:59.504Z,100919.47
2022-09-12T15:36:28.791Z,100909.78
2022-09-12T15:38:55.900Z,100908.03
2022-09-12T15:41:34.126Z,100906.34
2022-09-12T15:44:01.115Z,100900.78
2022-09-12T15:46:27.494Z,100903.47
2022-09-12T15:48:53.943Z,100888.47
2022-09-12T15:51:21.983Z,100879.72
2022-09-12T15:53:50.017Z,100886.34
2022-09-12T15:56:18.211Z,100884.56
2022-09-12T15:58:57.843Z,100882.25
2022-09-12T16:01:26.217Z,100884.91
2022-09-12T16:03:52.662Z,100881.31
2022-09-12T16:06:19.022Z,100879.13
2022-09-12T16:08:46.172Z,100873.84
2022-09-12T16:11:19.555Z,100861.41
2022-09-12T16:13:46.056Z,100857.13
2022-09-12T16:16:12.621Z,100861.88
2022-09-12T16:18:40.594Z,100858.06
2022-09-12T16:21:10.128Z,100856.22
2022-09-12T16:23:42.993Z,100859.38
2022-09-12T16:26:09.492Z,100860.03
2022-09-12T16:28:35.881Z,100854.41
2022-09-12T16:31:04.799Z,100851.81
2022-09-12T16:33:31.970Z,100849.44
2022-09-12T16:36:09.227Z,100856.75
2022-09-12T16:38:41.136Z,100850.41
2022-09-12T16:41:07.776Z,100842.72
2022-09-12T16:43:35.368Z,100839.88
2022-09-12T16:46:06.182Z,100836.63
2022-09-12T16:48:33.645Z,100835.50
2022-09-12T16:51:01.980Z,100837.31
2022-09-12T16:53:33.051Z,100835.28
2022-09-12T16:55:59.968Z,100835.28
2022-09-12T16:58:26.860Z,100833.50
2022-09-12T17:01:05.121Z,100829.59
2022-09-12T17:03:31.598Z,100835.44
2022-09-12T17:06:03.841Z,100836.63
2022-09-12T17:08:30.941Z,100840.88
2022-09-12T17:11:07.284Z,100829.84
2022-09-12T17:14:00.225Z,100820.53
2022-09-12T17:16:21.271Z,100823.66
2022-09-12T17:18:48.192Z,100808.22
2022-09-12T17:21:15.273Z,100808.22
2022-09-12T17:23:42.356Z,100809.78
2022-09-12T17:26:10.152Z,100802.09
2022-09-12T17:28:38.332Z,100796.38
2022-09-12T17:31:07.585Z,100793.16
2022-09-12T17:33:34.107Z,100785.50
2022-09-12T17:36:02.471Z,100776.66
2022-09-12T17:38:32.263Z,100787.06
2022-09-12T17:41:07.158Z,100784.44
2022-09-12T17:43:33.671Z,100782.41
2022-09-12T17:46:00.398Z,100782.06
2022-09-12T17:48:26.834Z,100787.22
2022-09-12T17:50:53.371Z,100797.13
2022-09-12T17:53:19.861Z,100798.91
2022-09-12T17:55:46.284Z,100805.84
2022-09-12T17:58:12.702Z,100801.06
2022-09-12T18:00:57.544Z,100817.31
2022-09-12T18:03:24.425Z,100818.41
2022-09-12T18:05:55.911Z,100818.50
2022-09-12T18:08:23.723Z,100818.88
2022-09-12T18:10:51.081Z,100823.09
2022-09-12T18:13:18.064Z,100815.50
2022-09-12T18:15:44.505Z,100808.91
2022-09-12T18:18:10.911Z,100807.31
2022-09-12T18:20:37.330Z,100803.22
2022-09-12T18:23:04.476Z,100800.47
2022-09-12T18:25:30.843Z,100805.72
2022-09-12T18:27:57.191Z,100811.06
2022-09-12T18:30:23.661Z,100808.31
2022-09-12T18:32:50.482Z,100816.44
2022-09-12T18:35:17.273Z,100815.44
2022-09-12T18:37:43.970Z,100814.59
2022-09-12T18:40:10.844Z,100821.50
2022-09-12T18:42:37.236Z,100820.06
2022-09-12T18:45:04.067Z,100823.41
2022-09-12T18:47:30.490Z,100830.19
2022-09-12T18:49:56.875Z,100825.16
2022-09-12T18:52:23.256Z,100829.91
2022-09-12T18:54:49.793Z,100825.19
2022-09-12T18:57:16.224Z,100819.94
2022-09-12T18:59:42.636Z,100824.19
2022-09-12T19:02:15.599Z,100815.66
2022-09-12T19:04:41.986Z,100820.31
2022-09-12T19:07:08.558Z,100811.91
2022-09-12T19:09:34.973Z,100803.94
2022-09-12T19:12:01.479Z,100803.00
2022-09-12T19:14:27.966Z,100797.66
2022-09-12T19:16:54.453Z,100790.72
2022-09-12T19:19:21.269Z,100789.72
2022-09-12T19:21:47.779Z,100790.06
2022-09-12T19:24:14.725Z,100777.78
2022-09-12T19:26:41.588Z,100774.22
2022-09-12T19:29:08.404Z,100771.22
2022-09-12T19:31:35.219Z,100760.78
2022-09-12T19:34:04.563Z,100763.97
2022-09-12T19:36:45.033Z,100761.47
2022-09-12T19:39:12.932Z,100767.97
2022-09-12T19:41:39.517Z,100762.47
2022-09-12T19:44:06.335Z,100757.06
2022-09-12T19:46:32.930Z,100758.44
2022-09-12T19:48:59.364Z,100754.91
2022-09-12T19:51:25.839Z,100754.44
2022-09-12T19:53:53.028Z,100758.88
2022-09-12T19:56:19.886Z,100762.13
2022-09-12T19:58:49.957Z,100767.25
2022-09-12T20:01:24.777Z,100764.28
2022-09-12T20:03:54.520Z,100764.97
2022-09-12T20:06:20.938Z,100760.47
2022-09-12T20:08:47.380Z,100764.53
2022-09-12T20:11:17.327Z,100765.44
2022-09-12T20:13:44.695Z,100766.31
2022-09-12T20:16:19.006Z,100763.97
2022-09-12T20:18:49.317Z,100767.56
2022-09-12T20:21:21.791Z,100762.09
2022-09-12T20:23:48.167Z,100759.03
2022-09-12T20:26:14.539Z,100761.38
2022-09-12T20:28:41.546Z,100755.16
2022-09-12T20:31:11.640Z,100735.69
2022-09-12T20:33:38.309Z,100725.13
2022-09-12T20:36:09.984Z,100728.56
2022-09-12T20:38:36.519Z,100738.44
2022-09-12T20:41:04.901Z,100732.28
2022-09-12T20:43:31.381Z,100730.06
2022-09-12T20:45:57.935Z,100731.22
2022-09-12T20:48:24.815Z,100727.47
2022-09-12T20:50:51.268Z,100721.41
2022-09-12T20:53:17.625Z,100731.13
2022-09-12T20:55:51.487Z,100743.53
2022-09-12T20:58:19.215Z,100749.09
2022-09-12T21:00:46.239Z,100738.72
2022-09-12T21:03:13.354Z,100740.31
2022-09-12T21:05:39.920Z,100747.94
2022-09-12T21:08:06.793Z,100751.28
2022-09-12T21:10:33.261Z,100752.22
2022-09-12T21:12:59.703Z,100755.16
2022-09-12T21:17:52.939Z,100750.25
2022-09-12T21:20:19.554Z,100753.81
2022-09-12T21:22:45.960Z,100744.84
2022-09-12T21:25:12.688Z,100743.09
2022-09-12T21:27:39.132Z,100746.13
2022-09-12T21:30:06.047Z,100735.63
2022-09-12T21:32:35.882Z,100727.91
2022-09-12T21:35:04.217Z,100724.66
2022-09-12T21:37:30.757Z,100713.00
2022-09-12T21:39:58.953Z,100723.72
2022-09-12T21:42:25.777Z,100733.03
2022-09-12T21:44:52.285Z,100732.34
2022-09-12T21:47:18.716Z,100744.34
2022-09-12T21:49:45.109Z,100746.19
2022-09-12T21:52:14.904Z,100739.41
2022-09-12T21:54:41.246Z,100744.50
2022-09-12T21:57:07.919Z,100741.31
2022-09-12T21:59:34.285Z,100761.06
2022-09-12T22:02:00.687Z,100753.06
2022-09-12T22:04:27.135Z,100751.22
2022-09-12T22:06:53.489Z,100753.72
2022-09-12T22:09:19.858Z,100752.06
2022-09-12T22:11:46.856Z,100746.78
2022-09-12T22:14:13.282Z,100743.03
2022-09-12T22:16:40.432Z,100748.25
2022-09-12T22:19:06.845Z,100747.63
2022-09-12T22:21:33.204Z,100747.59
2022-09-12T22:24:18.028Z,100751.66
2022-09-12T22:26:46.270Z,100746.59
2022-09-12T22:29:15.965Z,100741.75
2022-09-12T22:31:42.885Z,100741.75
2022-09-12T22:34:09.334Z,100739.66
2022-09-12T22:36:38.762Z,100738.19
2022-09-12T22:39:06.126Z,100733.63
2022-09-12T22:41:32.496Z,100728.28
2022-09-12T22:43:58.875Z,100741.38
2022-09-12T22:46:25.741Z,100727.06
2022-09-12T22:48:52.246Z,100726.00
2022-09-12T22:51:19.022Z,100730.88
2022-09-12T22:53:45.372Z,100722.41
2022-09-12T22:56:11.798Z,100719.00
2022-09-12T22:58:38.481Z,100720.97
2022-09-12T23:01:06.331Z,100708.53
2022-09-12T23:03:33.026Z,100715.75
2022-09-12T23:05:59.814Z,100711.56
2022-09-12T23:08:29.635Z,100709.00
2022-09-12T23:11:09.503Z,100705.66
2022-09-12T23:13:37.078Z,100698.03
2022-09-12T23:16:06.763Z,100695.97
2022-09-12T23:18:36.773Z,100701.91
2022-09-12T23:21:05.995Z,100698.16
2022-09-12T23:23:32.643Z,100689.50
2022-09-12T23:26:06.849Z,100685.69
2022-09-12T23:28:34.635Z,100690.41
2022-09-12T23:31:01.526Z,100683.66
2022-09-12T23:33:29.353Z,100681.72
2022-09-12T23:36:03.490Z,100685.69
2022-09-12T23:38:30.959Z,100686.22
2022-09-12T23:40:58.089Z,100678.00
2022-09-12T23:43:25.048Z,100678.97
2022-09-12T23:45:51.805Z,100673.97
2022-09-12T23:48:18.444Z,100674.44
2022-09-12T23:50:45.972Z,100678.00
2022-09-12T23:53:13.358Z,100671.69
2022-09-12T23:55:40.367Z,100672.75
2022-09-12T23:58:07.482Z,100674.16
